Time;durP1;ratioP1;P1;durP2;ratioP2;P2;SDS_P1;SDS_P2;PMS_P1;PMS_P2;Temp;Humidity;BMP_temperature;BMP_pressure;BME280_temperature;BME280_humidity;BME280_pressure;Samples;Min_cycle;Max_cycle;Signal;HPM_P1;HPM_P2
2022/03/08 00:01:21;;;;;;;10.90;6.70;;;;;;;-1.52;66.29;101577.16;4980506;28;20526;-62
2022/03/08 00:04:27;;;;;;;8.82;5.85;;;;;;;-1.76;67.08;101570.81;4994046;28;20108;-62
2022/03/08 00:07:31;;;;;;;9.60;6.38;;;;;;;-1.90;67.84;101573.19;4995811;28;20587;-62
2022/03/08 00:10:34;;;;;;;;;;;;;;;-1.95;67.41;101566.25;4996526;28;20125;-62
2022/03/08 00:13:38;;;;;;;8.88;4.72;;;;;;;-1.78;67.33;101575.09;4996129;28;20008;-62
2022/03/08 00:16:41;;;;;;;8.43;5.75;;;;;;;-1.75;66.62;101572.56;4996328;28;20041;-62
2022/03/08 00:19:44;;;;;;;13.15;6.25;;;;;;;-1.75;66.25;101572.56;4995521;28;20455;-62
2022/03/08 00:22:48;;;;;;;7.43;5.50;;;;;;;-1.84;67.03;101572.44;4995861;28;20064;-62
2022/03/08 00:25:51;;;;;;;9.48;6.00;;;;;;;-1.74;66.86;101569.16;4996036;28;20046;-62
2022/03/08 00:28:54;;;;;;;8.30;5.95;;;;;;;-1.79;67.26;101578.47;4995595;28;20081;-62
2022/03/08 00:31:57;;;;;;;8.57;5.82;;;;;;;-1.78;66.40;101575.09;4995954;28;20045;-62
2022/03/08 00:35:01;;;;;;;8.90;5.88;;;;;;;-1.92;66.32;101576.56;4983741;28;20574;-62
2022/03/08 00:38:04;;;;;;;9.10;5.32;;;;;;;-2.01;67.45;101581.53;4995574;28;20117;-62
2022/03/08 00:41:07;;;;;;;9.73;5.45;;;;;;;-1.90;67.94;101577.47;4995804;28;20049;-62
2022/03/08 00:44:11;;;;;;;9.25;6.07;;;;;;;-1.92;67.83;101576.56;4983403;28;20718;-62
2022/03/08 00:47:15;;;;;;;7.38;5.72;;;;;;;-1.95;66.75;101581.63;4995462;28;20447;-62
2022/03/08 00:50:22;;;;;;;9.85;6.93;;;;;;;-1.93;66.18;101574.84;4995280;28;20077;-63
2022/03/08 00:53:25;;;;;;;8.98;6.80;;;;;;;-2.02;67.47;101570.44;4995309;28;20080;-62
2022/03/08 00:56:28;;;;;;;7.93;6.55;;;;;;;-2.11;68.49;101560.91;4995144;28;20075;-62
2022/03/08 00:59:32;;;;;;;10.82;7.45;;;;;;;-2.05;68.34;101570.38;4982978;28;20068;-62
2022/03/08 01:02:35;;;;;;;9.68;6.88;;;;;;;-1.94;66.84;101563.72;4995122;28;20629;-62
2022/03/08 01:05:38;;;;;;;9.70;5.65;;;;;;;-2.18;68.08;101559.06;4995423;28;20454;-63
2022/03/08 01:08:42;;;;;;;7.18;5.90;;;;;;;-2.13;68.12;101554.88;4995302;28;20578;-63
2022/03/08 01:11:45;;;;;;;9.43;6.38;;;;;;;-2.24;68.13;101555.53;4995077;28;20049;-63
2022/03/08 01:14:49;;;;;;;9.38;7.22;;;;;;;-2.34;68.22;101549.41;4994814;28;20069;-63
2022/03/08 01:17:53;;;;;;;9.80;6.82;;;;;;;-2.29;68.76;101555.47;4982620;28;20048;-63
2022/03/08 01:20:58;;;;;;;8.68;6.65;;;;;;;-2.27;68.61;101538.41;4994856;28;20061;-62
2022/03/08 01:24:02;;;;;;;12.32;7.15;;;;;;;-2.16;68.14;101533.47;4994889;28;20108;-63
2022/03/08 01:27:05;;;;;;;9.15;6.65;;;;;;;-2.43;68.79;101534.72;4994562;28;20109;-63
2022/03/08 01:30:12;;;;;;;9.70;6.53;;;;;;;-2.50;68.96;101534.63;4994872;28;20181;-63
2022/03/08 01:33:15;;;;;;;10.77;6.53;;;;;;;-2.35;68.60;101530.63;4982614;28;20513;-63
2022/03/08 01:36:22;;;;;;;11.10;6.40;;;;;;;-2.28;68.53;101523.88;4994850;28;20070;-63
2022/03/08 01:39:25;;;;;;;11.77;6.53;;;;;;;-2.27;67.90;101511.94;4994106;28;20510;-63
2022/03/08 01:42:30;;;;;;;10.60;7.57;;;;;;;-2.58;69.05;101511.44;4980665;28;20079;-63
2022/03/08 01:45:34;;;;;;;;;;;;;;;-2.40;68.81;101508.31;4992826;28;20065;-63
2022/03/08 01:48:37;;;;;;;9.93;7.05;;;;;;;-2.28;67.81;101508.50;4992699;28;19971;-63
2022/03/08 01:51:42;;;;;;;8.32;6.30;;;;;;;-2.50;68.95;101514.13;4980105;28;20411;-63
2022/03/08 01:54:45;;;;;;;12.60;6.97;;;;;;;-2.44;68.86;101507.41;4992771;28;20092;-63
2022/03/08 01:57:50;;;;;;;10.02;7.32;;;;;;;-2.40;69.14;101509.16;4992838;28;20049;-63
2022/03/08 02:00:53;;;;;;;9.77;7.03;;;;;;;-2.47;69.47;101503.94;4992247;28;20081;-63
2022/03/08 02:03:57;;;;;;;10.00;6.72;;;;;;;-2.54;68.81;101507.22;4992593;28;20092;-63
2022/03/08 02:07:01;;;;;;;11.43;6.72;;;;;;;-2.64;69.32;101506.22;4981264;28;20045;-63
2022/03/08 02:10:06;;;;;;;11.80;6.43;;;;;;;-2.62;69.67;101497.72;4993864;28;20042;-63
2022/03/08 02:13:09;;;;;;;8.43;6.13;;;;;;;-2.53;70.18;101511.50;4993819;28;20084;-63
2022/03/08 02:16:14;;;;;;;10.35;6.38;;;;;;;-2.58;69.78;101504.63;4993750;28;20463;-63
2022/03/08 02:19:17;;;;;;;10.27;7.47;;;;;;;-2.62;69.21;101510.53;4993287;28;20045;-63
2022/03/08 02:22:20;;;;;;;14.52;7.95;;;;;;;-2.85;69.84;101506.69;4993441;28;20109;-62
2022/03/08 02:25:24;;;;;;;9.95;7.03;;;;;;;-2.67;69.66;101507.00;4993652;28;20177;-63
2022/03/08 02:28:30;;;;;;;9.73;7.23;;;;;;;-2.80;69.88;101507.63;4992509;28;20093;-63
2022/03/08 02:31:34;;;;;;;12.67;6.83;;;;;;;-2.83;70.51;101507.59;4993457;28;20455;-62
2022/03/08 02:34:37;;;;;;;11.68;7.15;;;;;;;-3.00;70.87;101501.28;4992505;28;20053;-63
2022/03/08 02:37:42;;;;;;;11.37;7.43;;;;;;;-3.08;71.05;101499.44;4992909;28;20053;-63
2022/03/08 02:40:46;;;;;;;9.43;6.80;;;;;;;-3.08;71.52;101493.47;4993013;28;20100;-63
2022/03/08 02:43:49;;;;;;;9.27;6.75;;;;;;;-2.87;71.02;101493.88;4992579;28;20057;-63
2022/03/08 02:46:52;;;;;;;12.52;7.50;;;;;;;-2.98;70.52;101484.25;4992384;28;20053;-63
2022/03/08 02:49:56;;;;;;;;;;;;;;;-2.90;69.69;101488.69;4992996;28;20416;-63
2022/03/08 02:53:01;;;;;;;9.82;6.93;;;;;;;-2.85;69.04;101475.97;4993020;28;20009;-63
2022/03/08 02:56:05;;;;;;;9.27;6.40;;;;;;;-2.76;69.52;101471.00;4992808;28;20591;-63
2022/03/08 02:59:08;;;;;;;9.32;7.00;;;;;;;-2.80;70.66;101469.25;4979512;28;20562;-63
2022/03/08 03:02:12;;;;;;;9.32;7.15;;;;;;;-2.89;70.33;101464.81;4989049;28;20049;-63
2022/03/08 03:05:15;;;;;;;;;;;;;;;-2.94;70.22;101461.31;4993123;28;20610;-63
2022/03/08 03:08:18;;;;;;;9.27;6.70;;;;;;;-2.81;69.50;101468.38;4992787;28;20346;-63
2022/03/08 03:11:22;;;;;;;10.98;6.93;;;;;;;-2.84;69.96;101468.34;4991719;28;20269;-63
2022/03/08 03:14:25;;;;;;;;;;;;;;;-2.77;69.71;101460.75;4992371;28;20057;-63
2022/03/08 03:17:28;;;;;;;14.47;6.93;;;;;;;-3.02;69.61;101467.13;4991756;28;20411;-63
2022/03/08 03:20:31;;;;;;;9.77;6.90;;;;;;;-3.13;70.32;101466.91;4991739;28;20045;-63
2022/03/08 03:23:35;;;;;;;10.73;6.97;;;;;;;-3.00;70.19;101455.22;4992127;28;20519;-63
2022/03/08 03:26:38;;;;;;;11.27;7.18;;;;;;;-3.20;70.65;101465.94;4992367;28;20069;-63
2022/03/08 03:29:42;;;;;;;9.88;7.35;;;;;;;-3.18;70.39;101466.84;4991101;28;20044;-63
2022/03/08 03:32:46;;;;;;;9.73;7.18;;;;;;;-3.30;71.20;101457.22;4984448;28;20048;-63
2022/03/08 03:35:49;;;;;;;10.93;7.03;;;;;;;-3.16;70.88;101460.06;4991741;28;20081;-63
2022/03/08 03:38:53;;;;;;;10.50;6.85;;;;;;;-3.02;70.40;101473.13;4991148;28;20085;-63
2022/03/08 03:41:56;;;;;;;9.63;7.50;;;;;;;-3.39;71.07;101466.41;4991702;28;20085;-63
2022/03/08 03:45:00;;;;;;;10.00;6.32;;;;;;;-3.44;71.52;101463.78;4991799;28;20124;-63
2022/03/08 03:48:03;;;;;;;8.52;6.30;;;;;;;-3.32;70.90;101463.13;4991879;28;20114;-63
2022/03/08 03:51:07;;;;;;;10.53;7.23;;;;;;;-3.34;70.49;101464.84;4991976;28;20065;-63
2022/03/08 03:54:10;;;;;;;9.95;7.40;;;;;;;-3.57;71.17;101457.56;4988095;28;20057;-63
2022/03/08 03:57:13;;;;;;;8.90;7.05;;;;;;;-3.43;71.75;101464.66;4991235;28;20100;-63
2022/03/08 04:00:17;;;;;;;11.02;7.75;;;;;;;-3.32;71.57;101458.03;4990645;28;20054;-63
2022/03/08 04:03:20;;;;;;;8.82;7.07;;;;;;;-3.36;70.53;101461.38;4990664;28;20057;-63
2022/03/08 04:06:24;;;;;;;9.00;7.07;;;;;;;-3.51;71.62;101456.81;4992060;28;20085;-63
2022/03/08 04:09:27;;;;;;;11.43;7.25;;;;;;;-3.58;71.72;101466.03;4990273;28;20092;-63
2022/03/08 04:12:30;;;;;;;10.07;7.25;;;;;;;-3.60;71.44;101472.84;4991781;28;20068;-63
2022/03/08 04:15:34;;;;;;;;;;;;;;;-3.42;71.18;101461.25;4992178;28;20388;-63
2022/03/08 04:18:37;;;;;;;9.47;6.53;;;;;;;-3.44;71.08;101457.81;4991093;28;19925;-63
2022/03/08 04:21:40;;;;;;;11.63;8.00;;;;;;;-3.26;69.58;101458.16;4990153;28;20089;-63
2022/03/08 04:24:43;;;;;;;;;;;;;;;-3.52;70.26;101455.94;4982634;28;20074;-63
2022/03/08 04:27:47;;;;;;;7.78;5.65;;;;;;;-3.53;70.57;101455.94;4990292;28;19940;-61
2022/03/08 04:30:50;;;;;;;;;;;;;;;-3.58;71.41;101454.97;4990581;28;20050;-61
2022/03/08 04:33:54;;;;;;;10.13;7.10;;;;;;;-3.45;70.61;101449.25;4989904;28;19921;-62
2022/03/08 04:36:57;;;;;;;11.98;7.60;;;;;;;-3.66;71.14;101447.16;4988795;28;20261;-62
2022/03/08 04:40:01;;;;;;;10.45;6.93;;;;;;;-3.60;71.34;101449.84;4970567;28;20173;-63
2022/03/08 04:43:04;;;;;;;9.70;6.77;;;;;;;-3.64;71.71;101449.72;4971362;28;20053;-63
2022/03/08 04:46:10;;;;;;;9.43;6.77;;;;;;;-3.47;71.32;101437.31;4989969;28;20217;-62
2022/03/08 04:49:14;;;;;;;9.37;6.67;;;;;;;-3.51;70.24;101429.56;4973220;28;20053;-63
2022/03/08 04:52:17;;;;;;;10.45;7.05;;;;;;;-3.53;70.71;101428.66;4990144;28;20085;-63
2022/03/08 04:55:21;;;;;;;12.52;6.60;;;;;;;-3.61;71.17;101430.19;4994219;28;20639;-62
2022/03/08 04:58:31;;;;;;;11.23;7.13;;;;;;;-3.52;70.98;101430.38;4981610;28;20135;-62
2022/03/08 05:01:34;;;;;;;11.03;6.87;;;;;;;-3.64;71.08;101430.13;4993319;28;20432;-62
2022/03/08 05:04:37;;;;;;;10.80;6.93;;;;;;;-3.61;71.79;101429.34;4993812;28;20129;-63
2022/03/08 05:07:41;;;;;;;;;;;;;;;-3.61;71.71;101424.22;4994569;28;20049;-63
2022/03/08 05:10:46;;;;;;;8.90;5.73;;;;;;;-3.55;71.04;101425.19;4994186;28;20949;-63
2022/03/08 05:13:49;;;;;;;9.48;6.72;;;;;;;-3.49;71.02;101436.41;4994277;28;20104;-63
2022/03/08 05:16:53;;;;;;;8.10;5.75;;;;;;;-3.62;70.76;101435.28;4994580;28;20046;-63
2022/03/08 05:19:56;;;;;;;9.90;6.65;;;;;;;-3.67;71.09;101439.44;4994489;28;20084;-63
2022/03/08 05:23:00;;;;;;;11.18;6.78;;;;;;;-3.70;70.73;101427.47;4994873;28;20056;-63
2022/03/08 05:26:06;;;;;;;9.33;6.40;;;;;;;-4.07;71.70;101434.34;4994250;28;20112;-64
2022/03/08 05:29:10;;;;;;;10.90;7.83;;;;;;;-4.04;71.88;101418.22;4970666;28;20575;-62
2022/03/08 05:32:16;;;;;;;10.57;6.45;;;;;;;-3.91;71.30;101419.34;4971255;28;20487;-63
2022/03/08 05:35:26;;;;;;;8.52;6.55;;;;;;;-3.83;70.48;101418.69;4947901;28;20133;-63
2022/03/08 05:38:30;;;;;;;8.00;6.13;;;;;;;-3.78;70.52;101417.06;4970708;28;20065;-62
2022/03/08 05:41:34;;;;;;;9.70;6.85;;;;;;;-3.83;71.44;101422.91;4971775;28;20166;-62
2022/03/08 05:44:38;;;;;;;9.03;7.00;;;;;;;-3.65;71.57;101430.97;4971991;28;20508;-62
2022/03/08 05:47:42;;;;;;;12.00;7.30;;;;;;;-3.70;71.21;101439.38;4972244;28;20058;-62
2022/03/08 05:50:46;;;;;;;9.83;7.07;;;;;;;-3.72;70.77;101441.91;4977096;28;20121;-62
2022/03/08 05:53:49;;;;;;;14.80;10.55;;;;;;;-3.63;70.28;101443.81;4990598;28;20053;-62
2022/03/08 05:56:52;;;;;;;;;;;;;;;-3.66;70.74;101446.28;4990861;28;20046;-62
2022/03/08 05:59:56;;;;;;;29.37;17.73;;;;;;;-3.88;71.64;101456.06;4990699;28;19956;-62
2022/03/08 06:02:59;;;;;;;;;;;;;;;-3.94;71.67;101455.06;4976818;28;20139;-62
2022/03/08 06:06:02;;;;;;;12.33;8.77;;;;;;;-3.91;72.23;101470.47;4990476;28;19920;-62
2022/03/08 06:09:05;;;;;;;14.30;9.48;;;;;;;-3.85;71.50;101470.59;4990411;28;20125;-62
2022/03/08 06:12:09;;;;;;;11.38;8.65;;;;;;;-3.87;71.84;101475.66;4990162;28;20108;-63
2022/03/08 06:15:12;;;;;;;11.20;7.07;;;;;;;-3.86;72.15;101474.84;4990143;28;20042;-62
2022/03/08 06:18:16;;;;;;;18.33;12.13;;;;;;;-3.82;72.23;101475.78;4990214;28;20041;-62
2022/03/08 06:21:21;;;;;;;15.27;9.60;;;;;;;-3.79;72.27;101478.41;4987906;28;20048;-62
2022/03/08 06:24:24;;;;;;;12.70;8.47;;;;;;;-3.86;72.67;101479.97;4989065;28;20072;-62
2022/03/08 06:27:28;;;;;;;12.50;8.82;;;;;;;-3.76;71.45;101481.03;4988627;28;20057;-61
2022/03/08 06:30:31;;;;;;;11.90;7.75;;;;;;;-3.87;72.37;101480.75;4988601;28;20065;-62
2022/03/08 06:33:34;;;;;;;;;;;;;;;-3.77;72.69;101482.69;4986135;28;20045;-62
2022/03/08 06:36:41;;;;;;;12.77;6.93;;;;;;;-3.86;72.80;101481.63;4982923;28;20401;-62
2022/03/08 06:39:46;;;;;;;21.03;11.70;;;;;;;-3.95;72.66;101484.00;4987571;28;20053;-62
2022/03/08 06:42:49;;;;;;;15.83;9.73;;;;;;;-3.90;72.90;101483.25;4971907;28;20117;-63
2022/03/08 06:45:53;;;;;;;15.73;8.87;;;;;;;-3.99;72.94;101483.03;4996110;28;20057;-62
2022/03/08 06:48:57;;;;;;;15.38;8.77;;;;;;;-3.89;73.06;101474.78;4988216;28;20301;-62
2022/03/08 06:52:01;;;;;;;12.75;8.38;;;;;;;-3.93;73.09;101480.63;4987880;28;20185;-62
2022/03/08 06:55:05;;;;;;;11.17;7.50;;;;;;;-3.86;73.36;101479.97;5002342;28;20099;-63
2022/03/08 06:58:08;;;;;;;9.47;7.00;;;;;;;-3.83;72.91;101484.25;5007857;28;20470;-63
2022/03/08 07:01:11;;;;;;;12.52;7.22;;;;;;;-3.86;73.26;101481.63;5012236;28;20063;-63
2022/03/08 07:04:15;;;;;;;9.05;6.90;;;;;;;-3.82;73.81;101475.78;5011013;28;20056;-63
2022/03/08 07:07:18;;;;;;;8.65;6.25;;;;;;;-3.78;73.50;101488.63;5012081;28;20048;-64
2022/03/08 07:10:21;;;;;;;9.40;6.45;;;;;;;-3.76;73.48;101486.97;5011863;28;20044;-63
2022/03/08 07:13:25;;;;;;;10.07;6.93;;;;;;;-3.68;73.46;101483.72;5011757;28;20117;-63
2022/03/08 07:16:28;;;;;;;9.82;6.47;;;;;;;-3.77;73.42;101489.50;5011877;28;20129;-63
2022/03/08 07:19:31;;;;;;;8.27;6.38;;;;;;;-3.45;72.81;101484.19;5011800;28;20067;-63
2022/03/08 07:22:36;;;;;;;11.38;6.53;;;;;;;-3.34;72.14;101475.06;5011962;28;20048;-63
2022/03/08 07:25:40;;;;;;;9.27;6.40;;;;;;;-3.24;72.38;101482.06;5000604;28;20111;-63
2022/03/08 07:28:43;;;;;;;10.53;7.10;;;;;;;-3.22;72.01;101474.41;4974668;28;20104;-63
2022/03/08 07:31:47;;;;;;;9.07;6.68;;;;;;;-3.07;71.75;101475.56;4999263;28;20264;-64
2022/03/08 07:34:51;;;;;;;9.77;7.17;;;;;;;-3.00;71.36;101471.41;5006818;28;20044;-63
2022/03/08 07:37:54;;;;;;;11.70;6.22;;;;;;;-2.85;71.27;101475.97;5007501;28;20049;-63
2022/03/08 07:40:57;;;;;;;9.85;6.53;;;;;;;-2.82;71.25;101478.59;5006434;28;20052;-63
2022/03/08 07:44:01;;;;;;;11.27;6.72;;;;;;;-2.76;71.66;101471.00;5006456;28;20052;-63
2022/03/08 07:47:04;;;;;;;10.53;6.57;;;;;;;-2.69;71.37;101467.72;4997164;28;20076;-63
2022/03/08 07:50:09;;;;;;;12.53;7.80;;;;;;;-2.43;70.85;101465.56;5011138;28;20037;-63
2022/03/08 07:53:12;;;;;;;12.73;9.43;;;;;;;-2.34;70.68;101462.31;5011207;28;20060;-63
2022/03/08 07:56:15;;;;;;;10.55;8.25;;;;;;;-2.15;70.80;101459.19;5011440;28;20587;-63
2022/03/08 07:59:19;;;;;;;12.18;8.23;;;;;;;-1.96;70.15;101462.03;5011203;28;20454;-63
2022/03/08 08:02:22;;;;;;;10.63;8.20;;;;;;;-1.84;70.68;101457.06;5011555;28;20080;-63
2022/03/08 08:05:25;;;;;;;17.60;7.97;;;;;;;-1.78;70.62;101462.28;5011456;28;20203;-63
2022/03/08 08:08:28;;;;;;;11.88;7.90;;;;;;;-1.77;70.62;101468.25;5011343;28;20683;-63
2022/03/08 08:11:32;;;;;;;;;;;;;;;-1.64;70.14;101465.88;5011705;28;20056;-63
2022/03/08 08:14:35;;;;;;;8.43;6.43;;;;;;;-1.44;69.58;101470.38;5011233;28;19920;-63
2022/03/08 08:17:38;;;;;;;14.60;8.60;;;;;;;-1.36;70.46;101467.91;5011154;28;20526;-63
2022/03/08 08:20:42;;;;;;;15.73;11.13;;;;;;;-1.28;70.18;101459.44;5011326;28;20100;-63
2022/03/08 08:23:45;;;;;;;13.88;9.70;;;;;;;-1.19;70.13;101469.81;5011366;28;20522;-63
2022/03/08 08:26:49;;;;;;;16.83;9.63;;;;;;;-1.10;70.04;101466.50;5015086;28;20139;-63
2022/03/08 08:29:52;;;;;;;13.48;9.43;;;;;;;-1.04;70.53;101458.00;5007302;28;20053;-63
2022/03/08 08:32:55;;;;;;;12.60;9.95;;;;;;;-0.90;70.00;101459.00;5015183;28;20180;-63
2022/03/08 08:35:58;;;;;;;;;;;;;;;-0.85;70.67;101452.22;5015396;28;20052;-63
2022/03/08 08:39:02;;;;;;;11.23;8.77;;;;;;;-0.76;69.11;101444.59;5014768;28;19990;-63
2022/03/08 08:42:07;;;;;;;11.20;8.55;;;;;;;-0.48;68.59;101444.81;5014939;28;20260;-63
2022/03/08 08:45:11;;;;;;;17.77;8.68;;;;;;;-0.30;67.85;101434.66;5014606;28;20048;-63
2022/03/08 08:48:15;;;;;;;12.75;8.02;;;;;;;-0.15;70.71;101438.19;5004661;28;20131;-63
2022/03/08 08:51:18;;;;;;;13.73;7.63;;;;;;;0.03;70.00;101430.56;4994789;28;20097;-63
2022/03/08 08:54:22;;;;;;;10.98;7.65;;;;;;;0.18;68.77;101428.09;4994967;28;20045;-63
2022/03/08 08:57:26;;;;;;;10.75;7.97;;;;;;;0.31;67.68;101429.00;4994913;28;20415;-63
2022/03/08 09:00:29;;;;;;;14.95;8.60;;;;;;;0.49;66.95;101422.22;4994991;28;20574;-63
2022/03/08 09:03:33;;;;;;;13.18;9.45;;;;;;;0.64;65.64;101423.13;4994869;28;20045;-63
2022/03/08 09:06:36;;;;;;;16.70;9.00;;;;;;;0.82;64.92;101416.31;4994675;28;20046;-63
2022/03/08 09:09:39;;;;;;;11.95;8.00;;;;;;;0.98;64.07;101412.91;4994781;28;20061;-63
2022/03/08 09:12:43;;;;;;;15.25;9.50;;;;;;;1.19;62.79;101413.78;4994496;28;20068;-63
2022/03/08 09:15:47;;;;;;;13.80;8.57;;;;;;;1.28;62.32;101413.78;4994680;28;20053;-63
2022/03/08 09:18:50;;;;;;;13.27;9.40;;;;;;;1.37;63.11;101408.63;4994724;28;20052;-63
2022/03/08 09:21:53;;;;;;;15.60;8.52;;;;;;;1.56;63.05;101404.31;4994320;28;20510;-63
2022/03/08 09:24:57;;;;;;;;;;;;;;;1.70;61.95;101394.00;4995061;28;20049;-63
2022/03/08 09:28:02;;;;;;;12.77;8.68;;;;;;;1.90;61.38;101381.06;4994024;28;19936;-63
2022/03/08 09:31:05;;;;;;;13.98;8.52;;;;;;;2.17;60.74;101374.94;4975017;28;20046;-64
2022/03/08 09:34:08;;;;;;;12.20;7.43;;;;;;;2.38;60.90;101368.81;4974877;28;20081;-63
2022/03/08 09:37:12;;;;;;;9.05;6.63;;;;;;;2.39;59.63;101370.53;4973313;28;20053;-63
2022/03/08 09:40:15;;;;;;;10.98;5.40;;;;;;;2.71;57.10;101358.31;4974808;28;20071;-63
2022/03/08 09:43:18;;;;;;;8.38;4.68;;;;;;;3.06;56.23;101348.56;4971586;28;20428;-63
2022/03/08 09:46:21;;;;;;;7.88;3.95;;;;;;;3.32;50.59;101351.81;4955535;29;20066;-63
2022/03/08 09:49:25;;;;;;;7.72;3.47;;;;;;;3.66;50.31;101346.28;4982994;28;20089;-63
2022/03/08 09:52:29;;;;;;;6.68;3.30;;;;;;;3.99;47.16;101351.94;4974357;28;20085;-63
2022/03/08 09:55:32;;;;;;;5.22;2.92;;;;;;;3.86;45.74;101349.53;4974701;28;20054;-63
2022/03/08 09:58:37;;;;;;;5.45;3.05;;;;;;;4.11;46.13;101350.06;4962066;28;20054;-64
2022/03/08 10:01:41;;;;;;;7.43;3.35;;;;;;;4.20;46.01;101344.78;4974505;28;20050;-61
2022/03/08 10:05:00;;;;;;;6.80;3.60;;;;;;;4.57;45.39;101344.28;4973785;28;20097;-61
2022/03/08 10:08:10;;;;;;;6.30;3.22;;;;;;;4.71;45.38;101336.31;4969262;28;20113;-61
2022/03/08 10:11:15;;;;;;;6.15;3.20;;;;;;;4.58;45.46;101339.97;4974187;28;20045;-61
2022/03/08 10:14:38;;;;;;;8.77;3.80;;;;;;;4.62;42.97;101333.84;4970750;28;20053;-63
2022/03/08 10:17:41;;;;;;;8.80;4.70;;;;;;;4.49;42.66;101335.75;4974026;28;20065;-63
2022/03/08 10:20:45;;;;;;;5.40;3.10;;;;;;;4.58;44.17;101334.78;4973403;28;20049;-63
2022/03/08 10:23:48;;;;;;;7.72;3.92;;;;;;;4.77;43.37;101336.22;4974058;28;20464;-63
2022/03/08 10:27:00;;;;;;;5.95;3.35;;;;;;;4.90;41.68;101321.34;4973428;28;20050;-63
2022/03/08 10:30:04;;;;;;;5.63;3.47;;;;;;;4.88;40.41;101329.16;4966937;28;20125;-63
2022/03/08 10:33:08;;;;;;;5.50;3.72;;;;;;;4.80;40.61;101325.81;4992956;28;20078;-63
2022/03/08 10:36:16;;;;;;;6.53;3.42;;;;;;;4.82;41.63;101328.41;4992855;28;20045;-63
2022/03/08 10:39:18;;;;;;;6.03;3.97;;;;;;;4.85;40.14;101318.84;4993116;28;20080;-63
2022/03/08 10:42:29;;;;;;;;;;;;;;;4.90;40.99;101313.56;4993721;28;20065;-63
2022/03/08 10:45:35;;;;;;;7.30;4.38;;;;;;;5.08;40.19;101321.03;5009242;28;19971;-63
2022/03/08 10:48:38;;;;;;;8.52;4.20;;;;;;;5.16;40.44;101313.13;5012027;28;20087;-63
2022/03/08 10:52:03;;;;;;;14.80;9.75;;;;;;;5.19;40.49;101302.69;4988698;28;20113;-63
2022/03/08 10:55:08;;;;;;;11.10;6.75;;;;;;;5.21;41.27;101308.72;4992942;28;20407;-63
2022/03/08 10:58:13;;;;;;;6.80;3.83;;;;;;;5.13;41.39;101302.81;4992667;28;20518;-63
2022/03/08 11:01:17;;;;;;;7.13;4.00;;;;;;;5.29;41.48;101293.88;4992545;28;20045;-63
2022/03/08 11:04:22;;;;;;;5.38;3.80;;;;;;;5.32;40.65;101296.41;4992349;28;20073;-63
2022/03/08 11:07:26;;;;;;;6.75;4.20;;;;;;;5.46;41.48;101296.16;4992592;28;20076;-63
2022/03/08 11:10:30;;;;;;;5.57;4.22;;;;;;;5.75;41.22;101280.03;4992546;28;20415;-63
2022/03/08 11:13:33;;;;;;;6.20;3.83;;;;;;;5.73;40.81;101279.19;4992496;28;20061;-63
2022/03/08 11:16:38;;;;;;;7.93;5.40;;;;;;;5.72;41.11;101271.47;4992626;28;20053;-63
2022/03/08 11:19:44;;;;;;;6.70;4.60;;;;;;;5.83;40.93;101279.88;4975644;28;20653;-63
2022/03/08 11:22:56;;;;;;;6.85;4.88;;;;;;;5.72;40.45;101272.31;4980519;28;20073;-63
2022/03/08 11:26:01;;;;;;;8.50;5.13;;;;;;;5.80;40.51;101273.00;4980682;28;20570;-63
2022/03/08 11:29:05;;;;;;;7.40;4.65;;;;;;;5.91;40.99;101272.78;4992477;28;20053;-63
2022/03/08 11:32:16;;;;;;;7.40;4.65;;;;;;;5.86;39.81;101266.81;4992477;28;20049;-63
2022/03/08 11:35:40;;;;;;;7.07;4.97;;;;;;;5.77;40.01;101254.03;4992799;28;20050;-63
2022/03/08 11:38:43;;;;;;;5.97;3.97;;;;;;;6.13;40.06;101256.78;4992135;28;20447;-63
2022/03/08 11:41:50;;;;;;;8.35;4.55;;;;;;;6.26;39.13;101242.63;4992234;28;20341;-63
2022/03/08 11:44:57;;;;;;;6.63;4.40;;;;;;;6.38;39.11;101228.47;4992184;28;20060;-63
2022/03/08 11:48:05;;;;;;;8.35;4.70;;;;;;;6.42;39.67;101237.94;4986552;28;20101;-63
2022/03/08 11:51:11;;;;;;;7.13;4.07;;;;;;;6.73;39.41;101238.91;4992411;28;20053;-63
2022/03/08 11:54:26;;;;;;;5.75;3.85;;;;;;;6.58;38.40;101234.06;4980326;28;20105;-63
2022/03/08 11:57:49;;;;;;;6.18;3.90;;;;;;;6.78;38.16;101232.72;4992033;28;20064;-63
2022/03/08 12:00:56;;;;;;;5.88;4.00;;;;;;;6.85;37.36;101235.13;4994574;28;20133;-63
2022/03/08 12:04:10;;;;;;;6.25;4.50;;;;;;;6.64;37.05;101231.34;4996200;28;20076;-63
2022/03/08 12:07:26;;;;;;;7.43;4.15;;;;;;;6.63;36.69;101226.16;4996249;28;20075;-63
2022/03/08 12:10:29;;;;;;;7.28;3.88;;;;;;;6.81;37.71;101214.44;4996143;28;20038;-63
2022/03/08 12:13:35;;;;;;;8.63;4.57;;;;;;;6.96;37.89;101220.09;4996107;28;20057;-63
2022/03/08 12:16:42;;;;;;;7.25;4.20;;;;;;;6.80;36.04;101217.97;4996133;28;20045;-63
2022/03/08 12:19:48;;;;;;;7.05;4.28;;;;;;;7.04;36.55;101225.09;4996198;28;20130;-63
2022/03/08 12:23:07;;;;;;;7.18;4.47;;;;;;;7.27;36.86;101218.41;4995873;28;20566;-63
2022/03/08 12:26:30;;;;;;;6.22;4.15;;;;;;;7.30;35.91;101213.97;4995819;28;20553;-63
2022/03/08 12:29:52;;;;;;;6.45;4.13;;;;;;;7.60;36.13;101209.69;4995918;28;20042;-63
2022/03/08 12:32:56;;;;;;;7.68;4.40;;;;;;;7.89;35.22;101200.16;4995529;28;20474;-63
2022/03/08 12:35:59;;;;;;;6.93;4.68;;;;;;;8.48;35.03;101188.75;4995640;28;20573;-63
2022/03/08 12:39:03;;;;;;;6.50;4.18;;;;;;;8.92;34.36;101187.25;4995749;28;20045;-62
2022/03/08 12:42:07;;;;;;;7.22;3.47;;;;;;;9.10;33.17;101183.16;4995430;28;20045;-63
2022/03/08 12:45:24;;;;;;;20.92;12.15;;;;;;;9.23;32.57;101181.81;4995162;28;20061;-63
2022/03/08 12:48:29;;;;;;;7.85;5.78;;;;;;;9.37;32.31;101183.91;4995334;28;20439;-63
2022/03/08 12:51:32;;;;;;;6.82;4.85;;;;;;;9.18;31.93;101177.66;4995555;28;20045;-63
2022/03/08 12:54:38;;;;;;;7.75;4.40;;;;;;;9.66;31.63;101180.22;4995335;28;20097;-64
2022/03/08 12:57:51;;;;;;;7.38;4.20;;;;;;;9.17;31.98;101175.97;4995038;28;20065;-64
2022/03/08 13:00:57;;;;;;;6.50;4.38;;;;;;;9.38;31.98;101174.31;4995014;28;20096;-63
2022/03/08 13:04:00;;;;;;;17.10;5.40;;;;;;;10.19;31.10;101172.03;4995139;28;20534;-63
2022/03/08 13:07:15;;;;;;;8.65;4.50;;;;;;;10.75;29.92;101169.78;4995062;28;20085;-63
2022/03/08 13:10:17;;;;;;;;;;;;;;;10.69;29.81;101157.84;4995199;28;20049;-64
2022/03/08 13:13:22;;;;;;;6.57;3.97;;;;;;;12.30;28.56;101169.66;4994884;28;19959;-63
2022/03/08 13:16:25;;;;;;;7.43;5.32;;;;;;;13.63;26.69;101158.44;4995016;28;20061;-64
2022/03/08 13:19:36;;;;;;;8.63;5.95;;;;;;;13.48;24.93;101155.69;4994994;28;20065;-64
2022/03/08 13:22:45;;;;;;;8.70;5.60;;;;;;;16.98;21.98;101147.41;4994809;28;20096;-64
2022/03/08 13:25:51;;;;;;;14.07;8.80;;;;;;;18.58;19.35;101134.84;4994484;28;20455;-64
2022/03/08 13:28:54;;;;;;;7.00;5.20;;;;;;;20.85;17.59;101136.94;4994457;28;20049;-65
2022/03/08 13:32:00;;;;;;;7.55;5.15;;;;;;;20.59;17.36;101137.34;4994548;28;20101;-65
2022/03/08 13:35:04;;;;;;;7.18;3.90;;;;;;;21.26;16.41;101129.84;4994513;28;20523;-65
2022/03/08 13:38:13;;;;;;;6.28;4.93;;;;;;;21.54;15.64;101125.63;4994806;28;20100;-65
2022/03/08 13:41:19;;;;;;;6.78;4.35;;;;;;;22.84;14.85;101129.63;4994208;28;20104;-65
2022/03/08 13:44:25;;;;;;;8.40;3.65;;;;;;;25.36;13.25;101120.63;4993902;28;20111;-65
2022/03/08 13:47:28;;;;;;;8.13;6.72;;;;;;;21.18;15.12;101132.31;4994365;28;20127;-65
2022/03/08 13:50:37;;;;;;;6.28;4.53;;;;;;;23.85;13.37;101130.59;4994083;28;20372;-66
2022/03/08 13:53:45;;;;;;;5.38;3.92;;;;;;;22.09;14.13;101128.63;4994455;28;20354;-64
2022/03/08 13:57:03;;;;;;;6.10;3.42;;;;;;;25.11;13.22;101123.19;4981902;28;20100;-68
2022/03/08 14:00:07;;;;;;;3.72;2.83;;;;;;;24.44;12.97;101116.75;4989250;28;20049;-66
2022/03/08 14:03:36;;;;;;;3.90;2.83;;;;;;;21.62;13.35;101122.28;4983081;28;20050;-67
2022/03/08 14:06:42;;;;;;;4.32;3.22;;;;;;;19.05;15.64;101126.91;4993982;28;20415;-64
2022/03/08 14:10:00;;;;;;;4.13;2.88;;;;;;;20.51;15.24;101142.47;4993844;28;20520;-64
2022/03/08 14:13:07;;;;;;;4.07;2.47;;;;;;;21.47;14.69;101119.97;4994166;28;20053;-64
2022/03/08 14:16:11;;;;;;;5.80;2.90;;;;;;;20.92;15.33;101119.47;4981933;28;20451;-64
2022/03/08 14:19:19;;;;;;;5.55;3.35;;;;;;;19.34;16.54;101123.75;4994125;28;20057;-64
2022/03/08 14:22:23;;;;;;;6.88;2.97;;;;;;;20.18;15.37;101119.53;4992804;28;20061;-64
2022/03/08 14:25:26;;;;;;;4.07;2.92;;;;;;;19.59;15.46;101117.28;4993533;28;20136;-63